| Date | Time | Temp. (oF) | Dew Point (oF) | Rel. Hum. (%) | Press. (in.) | Wind Dir. | Wind Speed (mph) | Hourly Rainfall (in.) |
|
|---|---|---|---|---|---|---|---|---|---|
| 1 | 10/31 | 00:00 | 35 | 31 | 86 | 30.50 | SW | 0 | 0.00 |
| 2 | 10/30 | 23:00 | 37 | 31 | 80 | 30.50 | SSW | 0 | 0.00 |
| 3 | 10/30 | 22:00 | 38 | 32 | 79 | 30.48 | WSW | 2 | 0.00 |
| 4 | 10/30 | 21:00 | 42 | 30 | 63 | 30.47 | WSW | 0 | 0.00 |
| 5 | 10/30 | 20:00 | 44 | 28 | 55 | 30.45 | W | 0 | 0.00 |
| 6 | 10/30 | 19:00 | 48 | 28 | 46 | 30.44 | NW | 2 | 0.00 |
| 7 | 10/30 | 18:00 | 50 | 27 | 41 | 30.42 | NW | 3 | 0.00 |
| 8 | 10/30 | 17:00 | 51 | 26 | 38 | 30.40 | NNW | 4 | 0.00 |
| 9 | 10/30 | 16:00 | 52 | 26 | 37 | 30.39 | N | 6 | 0.00 |
| 10 | 10/30 | 15:00 | 51 | 26 | 39 | 30.39 | NW | 9 | 0.00 |
| 11 | 10/30 | 14:00 | 50 | 26 | 40 | 30.39 | N | 9 | 0.00 |
| 12 | 10/30 | 13:00 | 48 | 26 | 43 | 30.40 | N | 13 | 0.00 |
| 13 | 10/30 | 12:00 | 45 | 25 | 47 | 30.42 | N | 8 | 0.00 |
| 14 | 10/30 | 11:00 | 44 | 26 | 51 | 30.42 | NW | 15 | 0.00 |
| 15 | 10/30 | 10:00 | 42 | 26 | 54 | 30.39 | N | 12 | 0.00 |
| 16 | 10/30 | 09:00 | 39 | 25 | 58 | 30.37 | NW | 2 | 0.00 |
| 17 | 10/30 | 08:00 | 35 | 23 | 62 | 30.34 | WNW | 1 | 0.00 |
| 18 | 10/30 | 07:00 | 37 | 23 | 57 | 30.30 | WNW | 3 | 0.00 |
| 19 | 10/30 | 06:00 | 38 | 23 | 56 | 30.26 | NW | 4 | 0.00 |
| 20 | 10/30 | 05:00 | 38 | 24 | 58 | 30.23 | NNW | 5 | 0.00 |
| 21 | 10/30 | 04:00 | 39 | 26 | 61 | 30.19 | NNW | 5 | 0.00 |
| 22 | 10/30 | 03:00 | 38 | 27 | 65 | 30.17 | W | 4 | 0.00 |
| 23 | 10/30 | 02:00 | 38 | 29 | 70 | 30.14 | NNW | 4 | 0.00 |
| 24 | 10/30 | 01:00 | 39 | 29 | 68 | 30.12 | NW | 7 | 0.00 |